Time;durP1;ratioP1;P1;durP2;ratioP2;P2;SDS_P1;SDS_P2;PMS_P1;PMS_P2;Temp;Humidity;BMP_temperature;BMP_pressure;BME280_temperature;BME280_humidity;BME280_pressure;Samples;Min_cycle;Max_cycle;Signal;HPM_P1;HPM_P2
2023/03/03 00:00:36;;;;;;;63.42;32.92;;;0.90;99.90;;;;;;5120496;27;20028;-71
2023/03/03 00:03:06;;;;;;;63.22;32.60;;;0.90;99.90;;;;;;5130082;27;20027;-68
2023/03/03 00:05:32;;;;;;;59.20;30.70;;;0.90;99.90;;;;;;5117722;27;20043;-67
2023/03/03 00:07:58;;;;;;;64.70;32.83;;;0.80;99.90;;;;;;5128437;27;20080;-68
2023/03/03 00:10:24;;;;;;;78.47;34.00;;;0.80;99.90;;;;;;5120277;27;20110;-69
2023/03/03 00:12:50;;;;;;;62.63;32.72;;;0.80;99.90;;;;;;5126482;27;20023;-69
2023/03/03 00:15:21;;;;;;;63.67;33.22;;;0.80;99.90;;;;;;5131114;27;20043;-69
2023/03/03 00:17:47;;;;;;;64.75;31.98;;;0.80;99.90;;;;;;5123234;27;20031;-69
2023/03/03 00:20:36;;;;;;;66.45;33.22;;;0.80;99.90;;;;;;5123362;27;20106;-69
2023/03/03 00:23:33;;;;;;;62.58;31.52;;;0.70;99.90;;;;;;5118629;27;20079;-69
2023/03/03 00:25:59;;;;;;;65.25;32.38;;;0.60;99.90;;;;;;5117739;27;20485;-69
2023/03/03 00:28:31;;;;;;;69.05;34.20;;;0.50;99.90;;;;;;5124773;27;20020;-69
2023/03/03 00:30:59;;;;;;;67.05;33.33;;;0.50;99.90;;;;;;5126664;27;20094;-69
2023/03/03 00:33:34;;;;;;;63.03;32.50;;;0.50;99.90;;;;;;5131390;27;20023;-69
2023/03/03 00:36:15;;;;;;;64.82;33.25;;;0.40;99.90;;;;;;5122581;27;20031;-69
2023/03/03 00:38:46;;;;;;;65.50;32.58;;;0.40;99.90;;;;;;5125039;27;20374;-69
2023/03/03 00:41:22;;;;;;;68.07;35.28;;;0.40;99.90;;;;;;5115672;27;20066;-70
2023/03/03 00:43:49;;;;;;;63.20;32.47;;;0.30;99.90;;;;;;5127880;27;20534;-68
2023/03/03 00:46:19;;;;;;;67.13;33.13;;;0.30;99.90;;;;;;5126464;27;20050;-68
2023/03/03 00:48:47;;;;;;;65.10;35.05;;;;;;;;;;5128903;27;20098;-68
2023/03/03 00:51:26;;;;;;;70.50;34.60;;;;;;;;;;5123049;27;20362;-68
2023/03/03 00:53:53;;;;;;;68.82;34.47;;;;;;;;;;5121268;27;20020;-69
2023/03/03 00:56:24;;;;;;;65.93;33.25;;;;;;;;;;5122459;27;20036;-69
2023/03/03 00:58:52;;;;;;;69.75;33.63;;;;;;;;;;5125848;27;20027;-69
2023/03/03 01:01:18;;;;;;;66.80;33.15;;;;;;;;;;5115637;27;20016;-69
2023/03/03 01:03:44;;;;;;;76.07;34.80;;;;;;;;;;5129669;27;20019;-68
2023/03/03 01:06:10;;;;;;;69.13;34.63;;;;;;;;;;5116989;27;20037;-68
2023/03/03 01:08:36;;;;;;;72.55;35.38;;;;;;;;;;5124829;27;20047;-69
2023/03/03 01:11:10;;;;;;;71.35;35.30;;;;;;;;;;5128014;27;20062;-69
2023/03/03 01:13:37;;;;;;;71.80;35.67;;;;;;;;;;5116400;27;20024;-70
2023/03/03 01:16:03;;;;;;;69.78;35.45;;;;;;;;;;5130375;27;20292;-69
2023/03/03 01:18:29;;;;;;;81.47;36.95;;;;;;;;;;5123073;27;20089;-69
2023/03/03 01:20:55;;;;;;;75.60;35.75;;;;;;;;;;5122292;27;20015;-69
2023/03/03 01:23:21;;;;;;;74.50;36.03;;;;;;;;;;5115762;27;20511;-69
2023/03/03 01:25:47;;;;;;;76.97;35.63;;;;;;;;;;5129783;27;20027;-70
2023/03/03 01:28:13;;;;;;;73.47;35.15;;;;;;;;;;5123741;27;20083;-69
2023/03/03 01:30:39;;;;;;;78.28;37.00;;;;;;;;;;5121063;27;20019;-70
2023/03/03 01:33:05;;;;;;;71.85;36.47;;;;;;;;;;5120815;28;20027;-69
2023/03/03 01:35:31;;;;;;;72.82;34.53;;;;;;;;;;5117691;28;20027;-68
2023/03/03 01:37:58;;;;;;;72.10;35.53;;;;;;;;;;5131216;27;20023;-69
2023/03/03 01:40:26;;;;;;;73.45;35.33;;;;;;;;;;5130122;27;20367;-68
2023/03/03 01:42:52;;;;;;;74.40;35.88;;;;;;;;;;5126227;27;20035;-69
2023/03/03 01:45:20;;;;;;;73.75;35.75;;;;;;;;;;5113692;28;20137;-69
2023/03/03 01:47:52;;;;;;;74.88;37.17;;;;;;;;;;5124338;28;20019;-69
2023/03/03 01:50:23;;;;;;;80.22;36.35;;;;;;;;;;5124525;27;20023;-69
2023/03/03 01:52:49;;;;;;;83.85;37.97;;;;;;;;;;5127249;27;20088;-68
2023/03/03 01:55:20;;;;;;;82.07;37.00;;;;;;;;;;5121315;28;20524;-68
2023/03/03 01:57:48;;;;;;;82.05;38.45;;;;;;;;;;5124673;27;20035;-69
2023/03/03 02:00:15;;;;;;;77.05;34.22;;;;;;;;;;5134550;27;20027;-68
2023/03/03 02:02:41;;;;;;;74.20;36.42;;;;;;;;;;5128857;27;20050;-69
2023/03/03 02:05:08;;;;;;;83.63;37.53;;;;;;;;;;5129345;27;20032;-69
2023/03/03 02:07:34;;;;;;;81.82;36.88;;;;;;;;;;5134604;27;20023;-69
2023/03/03 02:10:05;;;;;;;80.07;37.55;;;;;;;;;;5124915;27;20076;-68
2023/03/03 02:12:35;;;;;;;83.80;38.28;;;;;;;;;;5128450;27;20102;-68
2023/03/03 02:15:01;;;;;;;;;;;;;;;;;;5133798;27;20038;-69
2023/03/03 02:17:27;;;;;;;90.25;38.83;;;;;;;;;;5135521;27;20314;-69
2023/03/03 02:20:06;;;;;;;93.93;39.45;;;;;;;;;;5126945;27;20033;-69
2023/03/03 02:22:38;;;;;;;85.80;40.35;;;;;;;;;;5126173;27;20024;-69
2023/03/03 02:25:05;;;;;;;81.90;39.15;;;;;;;;;;5121232;27;20036;-68
2023/03/03 02:27:32;;;;;;;90.00;39.97;;;;;;;;;;5132645;27;20035;-67
2023/03/03 02:30:07;;;;;;;83.25;39.10;;;;;;;;;;5132839;27;20023;-68
2023/03/03 02:32:33;;;;;;;86.32;39.80;;;;;;;;;;5133354;27;20023;-68
2023/03/03 02:34:59;;;;;;;83.78;39.90;;;;;;;;;;5125347;27;20034;-68
2023/03/03 02:37:25;;;;;;;86.57;38.25;;;;;;;;;;5132525;27;20047;-69
2023/03/03 02:39:51;;;;;;;84.70;38.92;;;;;;;;;;5120591;27;20068;-69
2023/03/03 02:42:17;;;;;;;83.65;39.40;;;;;;;;;;5128050;27;20020;-69
2023/03/03 02:44:43;;;;;;;83.75;39.30;;;;;;;;;;5127286;27;20059;-69
2023/03/03 02:47:09;;;;;;;82.05;37.67;;;;;;;;;;5130476;27;20034;-68
2023/03/03 02:49:38;;;;;;;89.07;40.85;;;;;;;;;;5133141;27;20036;-68
2023/03/03 02:52:06;;;;;;;82.30;38.78;;;;;;;;;;5118841;27;20029;-69
2023/03/03 02:54:32;;;;;;;82.97;39.17;;;;;;;;;;5134436;27;20490;-69
2023/03/03 02:56:58;;;;;;;80.68;35.92;;;;;;;;;;5134193;27;20031;-68
2023/03/03 02:59:24;;;;;;;80.47;37.88;;;;;;;;;;5132234;27;20491;-69
2023/03/03 03:01:50;;;;;;;84.63;37.47;;;;;;;;;;5130905;27;20027;-69
2023/03/03 03:04:21;;;;;;;80.53;37.00;;;;;;;;;;5117244;27;20047;-69
2023/03/03 03:06:47;;;;;;;;;;;;;;;;;;5114813;27;20358;-69
2023/03/03 03:09:14;;;;;;;80.85;37.08;;;;;;;;;;5114010;27;20076;-69
2023/03/03 03:11:40;;;;;;;74.25;36.40;;;;;;;;;;5127301;27;20321;-69
2023/03/03 03:14:07;;;;;;;76.25;35.95;;;;;;;;;;5133920;27;20023;-68
2023/03/03 03:16:33;;;;;;;80.22;36.58;;;;;;;;;;5132806;27;20031;-69
2023/03/03 03:19:00;;;;;;;83.05;38.67;;;;;;;;;;5129194;27;20574;-69
2023/03/03 03:21:26;;;;;;;73.20;35.40;;;;;;;;;;5131886;27;20552;-69
2023/03/03 03:23:52;;;;;;;79.95;37.17;;;;;;;;;;5133332;27;20102;-69
2023/03/03 03:26:19;;;;;;;81.97;38.42;;;;;;;;;;5132696;27;20019;-68
2023/03/03 03:28:46;;;;;;;77.68;37.80;;;;;;;;;;5133680;27;20022;-69
2023/03/03 03:31:12;;;;;;;69.00;35.53;;;;;;;;;;5133080;27;20064;-69
2023/03/03 03:33:38;;;;;;;78.10;35.97;;;;;;;;;;5134369;27;20023;-69
2023/03/03 03:36:05;;;;;;;76.93;36.63;;;;;;;;;;5119177;27;20465;-69
2023/03/03 03:38:31;;;;;;;74.70;37.22;;;;;;;;;;5127906;27;20031;-68
2023/03/03 03:40:57;;;;;;;71.50;36.53;;;;;;;;;;5130554;27;20035;-69
2023/03/03 03:43:26;;;;;;;74.20;35.00;;;;;;;;;;5126640;27;20076;-69
2023/03/03 03:45:52;;;;;;;70.88;35.42;;;;;;;;;;5142003;27;20462;-69
2023/03/03 03:48:19;;;;;;;82.22;39.08;;;;;;;;;;5134707;27;20038;-69
2023/03/03 03:50:46;;;;;;;78.57;36.95;;;;;;;;;;5140262;27;20049;-69
2023/03/03 03:53:12;;;;;;;80.88;39.25;;;;;;;;;;5147936;27;20102;-69
2023/03/03 03:55:38;;;;;;;76.05;38.08;;;;;;;;;;5147440;27;20109;-69
2023/03/03 03:58:04;;;;;;;75.35;36.97;;;;;;;;;;5143737;27;20034;-68
2023/03/03 04:00:30;;;;;;;80.10;39.63;;;;;;;;;;5145134;27;20099;-68
2023/03/03 04:02:56;;;;;;;67.10;36.05;;;;;;;;;;5144591;27;20469;-69
2023/03/03 04:05:22;;;;;;;71.82;35.97;;;;;;;;;;5152489;27;20141;-68
2023/03/03 04:07:48;;;;;;;71.95;35.50;;;;;;;;;;5137997;27;20029;-70
2023/03/03 04:10:14;;;;;;;69.50;35.80;;;;;;;;;;5150415;27;20084;-69
2023/03/03 04:12:40;;;;;;;68.75;35.05;;;;;;;;;;5140115;27;20464;-70
2023/03/03 04:15:08;;;;;;;68.05;35.85;;;;;;;;;;5133817;27;20110;-70
2023/03/03 04:17:34;;;;;;;74.20;36.90;;;;;;;;;;5146370;27;20019;-69
2023/03/03 04:20:01;;;;;;;72.45;36.95;;;;;;;;;;5139525;27;20034;-69
2023/03/03 04:22:28;;;;;;;72.22;36.72;;;;;;;;;;5153733;27;20019;-69
2023/03/03 04:24:54;;;;;;;69.50;33.92;;;;;;;;;;5141181;27;20023;-69
2023/03/03 04:27:20;;;;;;;70.68;35.25;;;;;;;;;;5151552;27;20019;-69
2023/03/03 04:29:46;;;;;;;74.22;37.95;;;;;;;;;;5151809;27;20483;-70
2023/03/03 04:32:12;;;;;;;77.60;36.40;;;;;;;;;;5141858;27;20412;-70
2023/03/03 04:34:38;;;;;;;74.45;37.03;;;;;;;;;;5147488;27;20023;-69
2023/03/03 04:37:04;;;;;;;79.45;38.47;;;;;;;;;;5136834;27;20039;-70
2023/03/03 04:39:30;;;;;;;74.82;36.88;;;;;;;;;;5137551;27;20023;-69
2023/03/03 04:41:56;;;;;;;74.55;38.22;;;;;;;;;;5132464;27;20028;-68
2023/03/03 04:44:22;;;;;;;70.70;37.00;;;;;;;;;;5142280;27;20593;-69
2023/03/03 04:46:48;;;;;;;70.10;35.83;;;;;;;;;;5132184;27;20031;-69
2023/03/03 04:49:14;;;;;;;72.05;34.60;;;;;;;;;;5132329;27;20054;-69
2023/03/03 04:51:40;;;;;;;74.57;35.67;;;;;;;;;;5133005;27;20023;-69
2023/03/03 04:54:06;;;;;;;66.25;34.67;;;;;;;;;;5128322;27;20023;-69
2023/03/03 04:56:32;;;;;;;70.97;35.65;;;;;;;;;;5131885;27;20031;-69
2023/03/03 04:58:58;;;;;;;74.70;37.40;;;;;;;;;;5131698;27;20039;-69
2023/03/03 05:01:24;;;;;;;75.70;36.88;;;;;;;;;;5132290;27;20015;-69
2023/03/03 05:03:50;;;;;;;72.97;35.78;;;;;;;;;;5131990;27;20349;-70
2023/03/03 05:06:17;;;;;;;71.22;35.63;;;;;;;;;;5132114;27;20027;-70
2023/03/03 05:08:43;;;;;;;78.82;36.92;;;;;;;;;;5125785;27;20369;-70
2023/03/03 05:11:09;;;;;;;79.43;37.80;;;;;;;;;;5126608;27;20111;-70
2023/03/03 05:13:35;;;;;;;76.25;37.22;;;;;;;;;;5132488;27;20053;-70
2023/03/03 05:16:01;;;;;;;69.43;33.42;;;;;;;;;;5131000;27;20031;-70
2023/03/03 05:18:27;;;;;;;78.65;37.38;;;;;;;;;;5132730;27;20469;-69
2023/03/03 05:20:53;;;;;;;77.18;36.20;;;;;;;;;;5130977;27;20071;-70
2023/03/03 05:23:20;;;;;;;74.13;37.75;;;;;;;;;;5132425;27;20473;-70
2023/03/03 05:25:49;;;;;;;79.85;37.42;;;;;;;;;;5131091;27;20023;-70
2023/03/03 05:28:16;;;;;;;75.70;38.03;;;;;;;;;;5130962;27;20027;-70
2023/03/03 05:30:42;;;;;;;83.22;39.17;;;;;;;;;;5127210;27;20385;-69
2023/03/03 05:33:08;;;;;;;79.07;38.70;;;;;;;;;;5131361;27;20024;-69
2023/03/03 05:35:34;;;;;;;78.30;37.50;;;;;;;;;;5123310;27;20039;-69
2023/03/03 05:38:00;;;;;;;78.60;37.83;;;;;;;;;;5130838;28;20396;-68
2023/03/03 05:40:26;;;;;;;72.60;36.85;;;;;;;;;;5131214;28;20019;-68
2023/03/03 05:42:52;;;;;;;76.05;37.53;;;;;;;;;;5130908;28;20427;-68
2023/03/03 05:45:20;;;;;;;77.35;37.20;;;;;;;;;;5130323;27;20062;-69
2023/03/03 05:47:46;;;;;;;73.22;36.17;;;;;;;;;;5121671;28;20019;-69
2023/03/03 05:50:12;;;;;;;73.25;37.10;;;;;;;;;;5129242;28;20023;-68
2023/03/03 05:52:38;;;;;;;78.57;36.58;;;;;;;;;;5128943;28;20433;-68
2023/03/03 05:55:04;;;;;;;72.85;35.72;;;;;;;;;;5128866;28;20023;-68
2023/03/03 05:57:30;;;;;;;72.05;35.17;;;;;;;;;;5130317;28;20023;-68
2023/03/03 05:59:56;;;;;;;73.13;36.10;;;;;;;;;;5130254;28;20034;-68
2023/03/03 06:02:22;;;;;;;69.85;35.00;;;;;;;;;;5131277;28;20023;-69
2023/03/03 06:04:48;;;;;;;72.45;34.95;;;;;;;;;;5130342;28;20026;-68
2023/03/03 06:07:14;;;;;;;69.50;34.97;;;;;;;;;;5131381;28;20031;-68
2023/03/03 06:09:40;;;;;;;76.32;33.22;;;;;;;;;;5131004;28;20027;-69
2023/03/03 06:12:06;;;;;;;66.28;33.85;;;;;;;;;;5130246;28;20061;-71
2023/03/03 06:14:32;;;;;;;71.07;35.10;;;;;;;;;;5130548;28;20102;-69
2023/03/03 06:16:58;;;;;;;66.00;33.25;;;;;;;;;;5130544;28;20473;-68
2023/03/03 06:19:24;;;;;;;64.93;32.50;;;;;;;;;;5130533;28;20102;-73
2023/03/03 06:21:50;;;;;;;62.72;31.77;;;;;;;;;;5130580;28;20027;-68
2023/03/03 06:24:16;;;;;;;62.28;32.53;;;;;;;;;;5133736;27;20037;-68
2023/03/03 06:26:42;;;;;;;67.28;30.40;;;;;;;;;;5131068;28;20026;-70
2023/03/03 06:29:08;;;;;;;58.53;30.58;;;;;;;;;;5129600;28;20031;-70
2023/03/03 06:31:35;;;;;;;58.70;29.77;;;;;;;;;;5121940;28;20045;-69
2023/03/03 06:34:01;;;;;;;63.65;28.98;;;;;;;;;;5114644;28;20034;-71
2023/03/03 06:36:27;;;;;;;59.80;29.58;;;;;;;;;;5127633;28;20096;-68
2023/03/03 06:38:53;;;;;;;66.15;30.33;;;;;;;;;;5130677;28;20114;-69
2023/03/03 06:41:19;;;;;;;56.35;27.58;;;;;;;;;;5130915;27;20096;-69
2023/03/03 06:43:45;;;;;;;53.80;25.88;;;;;;;;;;5134926;27;20015;-74
2023/03/03 06:46:11;;;;;;;51.13;24.30;;;;;;;;;;5128539;27;20129;-72
2023/03/03 06:48:38;;;;;;;47.25;24.73;;;;;;;;;;5126059;27;20026;-71
2023/03/03 06:51:14;;;;;;;58.22;28.60;;;;;;;;;;5130369;27;20031;-71
2023/03/03 06:53:39;;;;;;;49.75;27.48;;;;;;;;;;5128073;27;20023;-70
2023/03/03 06:56:08;;;;;;;54.72;29.63;;;;;;;;;;5130065;27;20038;-70
2023/03/03 06:58:34;;;;;;;54.88;26.95;;;;;;;;;;5128834;27;20038;-69
2023/03/03 07:01:01;;;;;;;57.60;27.48;;;;;;;;;;5133007;27;20075;-69
2023/03/03 07:03:36;;;;;;;60.95;27.98;;;;;;;;;;5134760;27;20145;-69
2023/03/03 07:06:06;;;;;;;57.03;27.75;;;;;;;;;;5127829;27;20023;-69
2023/03/03 07:08:32;;;;;;;49.45;25.08;;;;;;;;;;5134745;27;20035;-69
2023/03/03 07:11:01;;;;;;;55.80;29.38;;;;;;;;;;5125737;27;20093;-69
2023/03/03 07:13:28;;;;;;;51.85;27.58;;;;;;;;;;5134371;27;20029;-69
2023/03/03 07:15:55;;;;;;;59.33;27.52;;;;;;;;;;5132368;27;20031;-67
2023/03/03 07:18:57;;;;;;;56.53;27.58;;;;;;;;;;5134364;27;20023;-69
2023/03/03 07:21:31;;;;;;;58.17;27.17;;;;;;;;;;5043424;28;20069;-70
2023/03/03 07:23:57;;;;;;;55.35;27.13;;;;;;;;;;5115064;27;20043;-70
2023/03/03 07:26:31;;;;;;;54.45;27.85;;;;;;;;;;5129989;27;20031;-69
2023/03/03 07:29:18;;;;;;;54.28;27.13;;;;;;;;;;5133397;27;20095;-69
2023/03/03 07:31:48;;;;;;;54.33;27.55;;;;;;;;;;5133955;27;20034;-69
2023/03/03 07:34:20;;;;;;;51.23;26.57;;;;;;;;;;5117595;27;20053;-69
2023/03/03 07:36:47;;;;;;;54.70;27.55;;;;;;;;;;5130747;27;20630;-69
2023/03/03 07:39:19;;;;;;;58.20;27.67;;;;;;;;;;5130303;27;20031;-69
2023/03/03 07:41:45;;;;;;;49.47;26.58;;;;;;;;;;5133807;27;20031;-69
2023/03/03 07:44:34;;;;;;;52.78;28.23;;;;;;;;;;5133014;27;20079;-69
2023/03/03 07:47:12;;;;;;;57.80;29.23;;;;;;;;;;5134656;27;20047;-68
2023/03/03 07:49:38;;;;;;;61.00;28.15;;;;;;;;;;5137518;27;20142;-68
2023/03/03 07:52:23;;;;;;;55.58;29.13;;;;;;;;;;5143225;27;20114;-68
2023/03/03 07:54:49;;;;;;;51.05;27.00;;;;;;;;;;5132451;27;20026;-69
2023/03/03 07:57:21;;;;;;;47.65;26.65;;;;;;;;;;5137430;27;20377;-68
2023/03/03 07:59:49;;;;;;;55.05;27.92;;;;;;;;;;5138067;27;20034;-69
2023/03/03 08:02:17;;;;;;;53.92;27.30;;;;;;;;;;5132191;27;20024;-69
2023/03/03 08:04:49;;;;;;;52.20;28.35;;;;;;;;;;5134384;27;20393;-69
2023/03/03 08:07:16;;;;;;;54.92;28.08;;;;;;;;;;5135204;27;20020;-68
2023/03/03 08:09:44;;;;;;;53.25;28.98;;;;;;;;;;5128145;27;20397;-69
2023/03/03 08:12:19;;;;;;;49.13;27.20;;;;;;;;;;5139316;27;20056;-69
2023/03/03 08:14:45;;;;;;;58.75;28.38;;;;;;;;;;5136193;27;20039;-69
2023/03/03 08:17:19;;;;;;;48.55;26.35;;;;;;;;;;5136004;27;20628;-69
2023/03/03 08:19:45;;;;;;;56.08;28.23;;;;;;;;;;5135879;27;20028;-68
2023/03/03 08:22:15;;;;;;;57.13;27.98;;;;;;;;;;5138530;27;20191;-69
2023/03/03 08:24:41;;;;;;;49.67;26.30;;;;;;;;;;5134989;27;20107;-68
2023/03/03 08:27:07;;;;;;;54.63;27.13;;;;;;;;;;5132240;27;20057;-68
2023/03/03 08:29:33;;;;;;;49.85;27.35;;;;;;;;;;5132790;27;20027;-69
2023/03/03 08:31:59;;;;;;;52.90;27.55;;;;;;;;;;5134614;27;20046;-69
2023/03/03 08:34:25;;;;;;;50.80;27.85;;;;;;;;;;5133090;27;20023;-68
2023/03/03 08:36:51;;;;;;;50.72;27.38;;;;;;;;;;5132276;27;20031;-69
2023/03/03 08:39:17;;;;;;;51.38;27.20;;;;;;;;;;5132373;27;20037;-68
2023/03/03 08:41:45;;;;;;;48.50;26.42;;;;;;;;;;5134061;27;20106;-68
2023/03/03 08:44:11;;;;;;;52.88;27.20;;;;;;;;;;5135501;27;20063;-68
2023/03/03 08:46:37;;;;;;;48.90;26.55;;;;;;;;;;5134571;27;20488;-69
2023/03/03 08:49:03;;;;;;;51.95;26.65;;;;;;;;;;5120479;27;20084;-69
2023/03/03 08:51:29;;;;;;;47.03;25.67;;;;;;;;;;5143127;27;20490;-68
2023/03/03 08:53:55;;;;;;;53.00;27.55;;;;;;;;;;5139052;27;20118;-69
2023/03/03 08:56:21;;;;;;;55.45;27.70;;;;;;;;;;5134205;27;20097;-69
2023/03/03 08:58:47;;;;;;;53.28;26.40;;;;;;;;;;5137671;27;20499;-68
2023/03/03 09:01:15;;;;;;;48.70;26.92;;;;;;;;;;5138023;27;20019;-68
2023/03/03 09:03:41;;;;;;;50.65;25.83;;;;;;;;;;5133007;27;20031;-68
2023/03/03 09:06:07;;;;;;;46.63;26.77;;;;;;;;;;5132570;27;20391;-68
2023/03/03 09:08:34;;;;;;;51.25;28.17;;;;;;;;;;5129694;27;20764;-68
2023/03/03 09:11:01;;;;;;;55.42;27.80;;;;;;;;;;5129860;27;20023;-68
2023/03/03 09:13:28;;;;;;;52.42;26.77;;;;;;;;;;5130928;27;20445;-68
2023/03/03 09:15:55;;;;;;;52.38;27.58;;;;;;;;;;5137102;27;20033;-69
2023/03/03 09:18:37;;;;;;;51.28;27.55;;;;;;;;;;5135765;27;20067;-68
2023/03/03 09:21:16;;;;;;;50.42;26.30;;;;;;;;;;5130003;27;20034;-68
2023/03/03 09:23:42;;;;;;;58.60;27.27;;;;;;;;;;5132000;27;20054;-68
2023/03/03 09:26:29;;;;;;;63.25;29.33;;;;;;;;;;5127734;27;20635;-68
2023/03/03 09:29:13;;;;;;;54.25;28.17;;;;;;;;;;5125632;27;20032;-69
2023/03/03 09:31:42;;;;;;;51.63;27.73;;;;;;;;;;5127625;27;20019;-69
2023/03/03 09:34:19;;;;;;;47.42;27.23;;;;;;;;;;5130025;27;20039;-68
2023/03/03 09:36:45;;;;;;;50.58;27.85;;;;;;;;;;5130448;27;20055;-69
2023/03/03 09:39:20;;;;;;;51.65;28.63;;;6.50;99.90;;;;;;5133566;27;20072;-69
2023/03/03 09:42:17;;;;;;;49.58;28.23;;;6.70;99.90;;;;;;5129982;27;20027;-69
2023/03/03 09:45:10;;;;;;;50.78;28.10;;;6.90;99.90;;;;;;5130300;27;20732;-69
2023/03/03 09:48:03;;;;;;;46.25;27.27;;;7.10;99.90;;;;;;5125613;28;20027;-69
2023/03/03 09:50:32;;;;;;;46.90;25.67;;;7.10;99.90;;;;;;5117921;28;20076;-68
2023/03/03 09:53:41;;;;;;;49.63;27.65;;;7.20;99.90;;;;;;5127583;28;20022;-68
2023/03/03 09:56:30;;;;;;;48.78;27.25;;;7.30;99.90;;;;;;5124681;28;20421;-68
2023/03/03 09:59:04;;;;;;;45.90;26.35;;;7.30;99.90;;;;;;5120399;28;20031;-69
2023/03/03 10:01:42;;;;;;;47.05;27.73;;;7.20;99.90;;;;;;5130501;28;20030;-68
2023/03/03 10:04:35;;;;;;;48.92;25.88;;;7.30;99.90;;;;;;5127034;28;20452;-69
2023/03/03 10:07:32;;;;;;;48.25;26.23;;;7.40;99.90;;;;;;5120809;28;20039;-69
2023/03/03 10:10:31;;;;;;;49.88;27.52;;;7.30;99.90;;;;;;5104046;28;20020;-69
2023/03/03 10:13:18;;;;;;;44.40;25.48;;;7.50;99.90;;;;;;5125723;28;20031;-69
2023/03/03 10:15:57;;;;;;;48.67;26.95;;;7.70;99.90;;;;;;5098874;28;20450;-69
2023/03/03 10:18:44;;;;;;;44.92;25.35;;;7.70;99.90;;;;;;5125553;27;20536;-69
2023/03/03 10:21:15;;;;;;;49.67;26.88;;;7.70;99.90;;;;;;5127586;27;20039;-68
2023/03/03 10:24:04;;;;;;;53.90;27.92;;;7.70;99.90;;;;;;5122128;27;20034;-70
2023/03/03 10:26:58;;;;;;;42.78;25.85;;;7.70;99.90;;;;;;5123318;27;20020;-69
2023/03/03 10:29:42;;;;;;;42.65;26.50;;;7.70;99.90;;;;;;5126355;27;20675;-69
2023/03/03 10:32:24;;;;;;;46.58;25.85;;;7.80;99.90;;;;;;5133584;27;20492;-69
2023/03/03 10:35:02;;;;;;;53.20;27.92;;;7.90;99.90;;;;;;5124536;27;20031;-69
2023/03/03 10:37:30;;;;;;;49.67;28.98;;;7.90;99.90;;;;;;5128412;27;20039;-68
2023/03/03 10:40:36;;;;;;;49.80;27.55;;;7.80;99.90;;;;;;5131616;27;20039;-68
2023/03/03 10:43:16;;;;;;;46.78;25.70;;;7.80;99.90;;;;;;5123124;27;20030;-69
2023/03/03 10:46:05;;;;;;;;;;;7.70;99.90;;;;;;5123722;27;20127;-69
2023/03/03 10:48:51;;;;;;;48.90;26.48;;;7.70;99.90;;;;;;5110958;27;19911;-70
2023/03/03 10:51:39;;;;;;;49.10;25.02;;;7.80;99.90;;;;;;5132839;27;20027;-69
2023/03/03 10:54:41;;;;;;;52.97;27.85;;;7.90;99.90;;;;;;5128757;27;20427;-68
2023/03/03 10:57:41;;;;;;;51.03;28.13;;;8.10;99.90;;;;;;5124488;27;20067;-69
2023/03/03 11:00:15;;;;;;;;;;;8.10;99.90;;;;;;5119537;27;20031;-70
2023/03/03 11:03:22;;;;;;;49.70;26.95;;;8.00;99.90;;;;;;5128905;27;19952;-70
2023/03/03 11:05:58;;;;;;;50.72;27.02;;;8.00;99.90;;;;;;5130547;27;20041;-69
2023/03/03 11:08:46;;;;;;;44.08;26.33;;;8.10;99.90;;;;;;5126058;27;20027;-69
2023/03/03 11:11:28;;;;;;;47.05;27.63;;;8.10;99.90;;;;;;5124784;27;20725;-68
2023/03/03 11:14:16;;;;;;;48.33;26.15;;;8.10;99.90;;;;;;5131097;27;20031;-70
2023/03/03 11:16:57;;;;;;;44.03;27.00;;;8.20;99.90;;;;;;5127230;27;20080;-69
2023/03/03 11:19:26;;;;;;;49.95;27.83;;;8.30;99.90;;;;;;5131860;27;20323;-69
2023/03/03 11:22:09;;;;;;;46.33;27.20;;;8.60;99.90;;;;;;5109922;27;20027;-70
2023/03/03 11:24:41;;;;;;;45.38;26.73;;;8.80;99.90;;;;;;5120809;27;20027;-69
2023/03/03 11:27:33;;;;;;;48.85;29.42;;;;;;;;;;5130806;27;20027;-69
2023/03/03 11:30:17;;;;;;;47.05;28.90;;;;;;;;;;5122255;27;20035;-70
2023/03/03 11:32:53;;;;;;;54.83;30.08;;;;;;;;;;5128160;27;20031;-68
2023/03/03 11:35:28;;;;;;;45.30;29.15;;;;;;;;;;5124943;27;20638;-69
2023/03/03 11:37:54;;;;;;;48.97;29.10;;;;;;;;;;5124076;27;20046;-69
2023/03/03 11:40:26;;;;;;;48.17;28.13;;;;;;;;;;5127495;27;20020;-69
2023/03/03 11:43:05;;;;;;;48.20;27.70;;;;;;;;;;5125240;27;20031;-69
2023/03/03 11:45:42;;;;;;;45.33;27.52;;;;;;;;;;5121129;27;20039;-69
2023/03/03 11:48:18;;;;;;;48.40;29.05;;;;;;;;;;5142130;27;20038;-69
2023/03/03 11:51:05;;;;;;;47.70;27.83;;;;;;;;;;5143225;27;20024;-76
2023/03/03 11:53:40;;;;;;;45.67;27.67;;;;;;;;;;5132953;27;20385;-70
2023/03/03 11:56:26;;;;;;;47.55;27.45;;;;;;;;;;5143387;27;20402;-72
2023/03/03 11:58:59;;;;;;;64.43;34.40;;;;;;;;;;5132456;27;20054;-71
2023/03/03 12:01:49;;;;;;;50.05;29.17;;;;;;;;;;5141596;27;20019;-70
2023/03/03 12:04:18;;;;;;;48.35;29.65;;;;;;;;;;5145951;27;20023;-69
2023/03/03 12:07:03;;;;;;;45.35;27.75;;;;;;;;;;5136745;27;20030;-70
2023/03/03 12:09:48;;;;;;;59.83;31.65;;;;;;;;;;5152244;27;20037;-70
2023/03/03 12:12:15;;;;;;;46.83;27.63;;;;;;;;;;5135163;27;20031;-70
2023/03/03 12:14:41;;;;;;;45.13;27.77;;;;;;;;;;5143423;27;20533;-70
2023/03/03 12:17:26;;;;;;;40.50;25.80;;;;;;;;;;5143915;27;20043;-71
2023/03/03 12:20:03;;;;;;;39.58;25.08;;;;;;;;;;5140292;27;20031;-71
2023/03/03 12:22:51;;;;;;;42.17;27.67;;;11.20;93.50;;;;;;5131957;27;20424;-70
2023/03/03 12:25:41;;;;;;;44.53;26.80;;;11.50;93.20;;;;;;5117034;27;20035;-71
2023/03/03 12:28:35;;;;;;;46.67;25.83;;;11.50;93.00;;;;;;5141630;27;20325;-72
2023/03/03 12:31:07;;;;;;;49.75;26.17;;;11.70;92.30;;;;;;5132156;27;20168;-72
2023/03/03 12:33:59;;;;;;;43.65;26.80;;;11.90;92.20;;;;;;5143796;27;20110;-71
2023/03/03 12:36:28;;;;;;;41.63;25.60;;;12.00;91.00;;;;;;5143247;27;20113;-69
2023/03/03 12:39:15;;;;;;;42.63;25.33;;;11.90;91.60;;;;;;5147098;27;20057;-74
2023/03/03 12:42:31;;;;;;;43.78;24.83;;;11.80;90.60;;;;;;5151535;27;20409;-72
2023/03/03 12:45:34;;;;;;;40.50;25.60;;;11.60;90.90;;;;;;5045036;28;20151;-72
2023/03/03 12:48:11;;;;;;;38.20;25.17;;;11.20;91.60;;;;;;5126560;27;20034;-73
2023/03/03 12:50:40;;;;;;;38.85;23.92;;;11.30;91.60;;;;;;5129356;27;20440;-70
2023/03/03 12:53:18;;;;;;;40.38;24.17;;;11.70;90.80;;;;;;5121534;27;20023;-71
2023/03/03 12:55:48;;;;;;;34.90;22.92;;;;;;;;;;5121232;27;20095;-76
2023/03/03 12:58:35;;;;;;;37.90;25.15;;;;;;;;;;5124452;27;20073;-71
2023/03/03 13:01:19;;;;;;;36.88;23.98;;;12.70;87.50;;;;;;5120976;27;20066;-72
2023/03/03 13:04:23;;;;;;;34.72;22.50;;;12.80;87.20;;;;;;5125898;27;20106;-71
2023/03/03 13:07:02;;;;;;;34.90;24.77;;;13.10;86.90;;;;;;5098021;27;20313;-70
2023/03/03 13:10:12;;;;;;;37.00;23.27;;;13.40;84.90;;;;;;5128435;27;20030;-72
2023/03/03 13:12:58;;;;;;;35.83;23.40;;;;;;;;;;5045182;28;20048;-70
2023/03/03 13:15:27;;;;;;;34.60;23.33;;;13.90;81.40;;;;;;5046020;28;20037;-72
2023/03/03 13:18:17;;;;;;;36.65;24.02;;;14.00;81.80;;;;;;5043249;28;20597;-72
2023/03/03 13:21:05;;;;;;;39.38;23.23;;;14.20;81.30;;;;;;5045189;28;20078;-71
2023/03/03 13:23:42;;;;;;;37.47;23.80;;;14.20;79.90;;;;;;5045687;28;20108;-71
2023/03/03 13:26:24;;;;;;;33.67;22.05;;;14.00;80.20;;;;;;5044737;28;20037;-70
2023/03/03 13:29:23;;;;;;;35.10;22.30;;;13.80;80.30;;;;;;5046166;28;20037;-69
2023/03/03 13:32:11;;;;;;;34.33;23.48;;;13.60;79.50;;;;;;5002967;28;20048;-70
2023/03/03 13:34:52;;;;;;;36.53;22.70;;;13.30;80.80;;;;;;5045673;28;20056;-69
2023/03/03 13:37:34;;;;;;;38.88;22.90;;;13.10;81.70;;;;;;5045126;28;20053;-72
2023/03/03 13:40:15;;;;;;;39.58;23.08;;;13.10;81.50;;;;;;5045413;28;20055;-76
2023/03/03 13:42:54;;;;;;;34.15;22.60;;;13.10;80.90;;;;;;5052704;28;20092;-71
2023/03/03 13:45:37;;;;;;;38.53;24.52;;;13.20;81.30;;;;;;5139893;27;20050;-70
2023/03/03 13:48:06;;;;;;;43.92;23.85;;;13.50;79.80;;;;;;5122842;27;20469;-71
2023/03/03 13:50:48;;;;;;;36.08;23.73;;;13.40;79.40;;;;;;5150108;27;20023;-71
2023/03/03 13:53:41;;;;;;;34.05;23.80;;;13.30;79.30;;;;;;5153172;27;20029;-71
2023/03/03 13:56:33;;;;;;;35.75;22.77;;;12.90;79.80;;;;;;5149892;27;20023;-73
2023/03/03 13:59:08;;;;;;;41.50;24.75;;;12.70;80.90;;;;;;5150489;27;20023;-72
2023/03/03 14:01:51;;;;;;;41.10;23.92;;;12.70;81.00;;;;;;5146739;27;20109;-70
2023/03/03 14:04:30;;;;;;;39.85;24.67;;;12.80;79.80;;;;;;5152890;27;20059;-73
2023/03/03 14:07:06;;;;;;;39.25;24.75;;;12.80;80.40;;;;;;5152198;27;20034;-72
2023/03/03 14:09:43;;;;;;;41.70;24.85;;;12.70;80.50;;;;;;5154164;27;20027;-71
2023/03/03 14:12:37;;;;;;;39.80;25.42;;;12.50;81.10;;;;;;5144925;27;20027;-71
2023/03/03 14:15:20;;;;;;;40.80;24.77;;;12.50;80.60;;;;;;5155653;27;20044;-76